Time;durP1;ratioP1;P1;durP2;ratioP2;P2;SDS_P1;SDS_P2;PMS_P1;PMS_P2;Temp;Humidity;BMP_temperature;BMP_pressure;BME280_temperature;BME280_humidity;BME280_pressure;Samples;Min_cycle;Max_cycle;Signal;HPM_P1;HPM_P2
2021/10/16 00:00:04;;;;;;;14.52;11.27;;;9.90;99.90;;;;;;5025115;28;20034;-89
2021/10/16 00:02:29;;;;;;;14.32;11.13;;;9.80;99.90;;;;;;5009014;28;20026;-89
2021/10/16 00:04:55;;;;;;;17.27;12.70;;;9.70;99.90;;;;;;5015777;28;20033;-89
2021/10/16 00:07:20;;;;;;;15.40;12.13;;;9.70;99.90;;;;;;5014440;28;20030;-88
2021/10/16 00:09:46;;;;;;;15.10;11.20;;;9.80;99.90;;;;;;5000661;28;20033;-89
2021/10/16 00:12:12;;;;;;;16.90;12.55;;;9.70;99.90;;;;;;5016565;28;20053;-88
2021/10/16 00:14:38;;;;;;;16.70;12.80;;;9.80;99.90;;;;;;5001311;28;20041;-89
2021/10/16 00:17:04;;;;;;;14.82;11.90;;;9.70;99.90;;;;;;5017550;28;20033;-89
2021/10/16 00:19:30;;;;;;;15.00;12.00;;;9.50;99.90;;;;;;5013640;28;20545;-89
2021/10/16 00:21:55;;;;;;;13.52;10.48;;;9.80;99.90;;;;;;5001847;28;20435;-88
2021/10/16 00:24:21;;;;;;;13.13;10.52;;;9.20;99.90;;;;;;5002789;28;20033;-89
2021/10/16 00:26:46;;;;;;;12.27;10.23;;;9.10;99.90;;;;;;5019969;28;20572;-89
2021/10/16 00:29:12;;;;;;;13.43;10.77;;;9.10;99.90;;;;;;5002703;28;20060;-88
2021/10/16 00:31:37;;;;;;;13.07;10.23;;;9.10;99.90;;;;;;5015504;28;20029;-89
2021/10/16 00:34:03;;;;;;;14.25;10.90;;;9.10;99.90;;;;;;5001743;28;20060;-89
2021/10/16 00:36:29;;;;;;;17.20;10.65;;;9.10;99.90;;;;;;5020320;28;20033;-89
2021/10/16 00:38:54;;;;;;;12.73;10.48;;;9.20;99.90;;;;;;5020987;28;20061;-88
2021/10/16 00:41:20;;;;;;;12.77;10.32;;;9.30;99.90;;;;;;5022663;28;20028;-89
2021/10/16 00:43:45;;;;;;;15.80;11.40;;;9.40;99.90;;;;;;5015191;28;20406;-89
2021/10/16 00:46:12;;;;;;;12.85;10.75;;;9.40;99.90;;;;;;5000553;28;20026;-89
2021/10/16 00:48:37;;;;;;;16.17;11.73;;;9.40;99.90;;;;;;5021648;28;20448;-89
2021/10/16 00:51:03;;;;;;;13.77;11.50;;;9.40;99.90;;;;;;5021368;28;20110;-89
2021/10/16 00:53:29;;;;;;;13.75;10.93;;;9.80;99.90;;;;;;5020069;28;20039;-89
2021/10/16 00:55:55;;;;;;;14.15;10.77;;;9.50;99.90;;;;;;4999648;28;20037;-89
2021/10/16 00:58:22;;;;;;;13.50;10.75;;;9.50;99.90;;;;;;5017150;28;20102;-89
2021/10/16 01:00:49;;;;;;;14.23;10.73;;;9.80;99.90;;;;;;5020612;28;20029;-89
2021/10/16 01:03:14;;;;;;;15.75;12.02;;;9.40;99.90;;;;;;5029604;28;20091;-87
2021/10/16 01:05:40;;;;;;;14.10;11.32;;;9.30;99.90;;;;;;5008221;28;20553;-89
2021/10/16 01:08:10;;;;;;;17.10;12.57;;;9.40;99.90;;;;;;5001890;28;20021;-89
2021/10/16 01:10:36;;;;;;;14.73;11.55;;;9.30;99.90;;;;;;5015693;28;20042;-89
2021/10/16 01:13:02;;;;;;;14.30;11.63;;;9.20;99.90;;;;;;5001070;28;20076;-89
2021/10/16 01:15:28;;;;;;;13.75;11.57;;;9.50;99.90;;;;;;5002808;28;20037;-88
2021/10/16 01:17:54;;;;;;;14.27;11.80;;;9.30;99.90;;;;;;5024481;28;20546;-89
2021/10/16 01:20:23;;;;;;;15.30;11.65;;;9.20;99.90;;;;;;5029518;28;20070;-90
2021/10/16 01:22:49;;;;;;;13.40;11.18;;;9.20;99.90;;;;;;5001279;28;20006;-89
2021/10/16 01:25:23;;;;;;;14.38;11.43;;;9.50;99.90;;;;;;5015768;28;20408;-89
2021/10/16 01:27:50;;;;;;;14.32;11.65;;;9.30;99.90;;;;;;5033752;28;20164;-89
2021/10/16 01:30:22;;;;;;;15.23;12.13;;;9.20;99.90;;;;;;5022886;28;20025;-90
2021/10/16 01:32:49;;;;;;;15.70;10.98;;;9.20;99.90;;;;;;5019227;28;20101;-89
2021/10/16 01:35:15;;;;;;;14.65;11.00;;;9.50;99.90;;;;;;5021461;28;20025;-89
2021/10/16 01:37:43;;;;;;;14.23;11.40;;;9.00;99.90;;;;;;5015801;28;20089;-89
2021/10/16 01:40:10;;;;;;;14.05;10.88;;;9.00;99.90;;;;;;5025580;28;20036;-89
2021/10/16 01:42:41;;;;;;;15.00;11.07;;;8.90;99.90;;;;;;5018133;28;20049;-89
2021/10/16 01:45:09;;;;;;;14.80;11.43;;;9.00;99.90;;;;;;5010650;28;20040;-89
2021/10/16 01:47:47;;;;;;;14.40;10.93;;;8.80;99.90;;;;;;5026840;28;20030;-88
2021/10/16 01:50:13;;;;;;;12.43;10.70;;;8.80;99.90;;;;;;5001511;28;20595;-89
2021/10/16 01:52:39;;;;;;;16.52;11.80;;;9.20;99.90;;;;;;4998673;28;20477;-89
2021/10/16 01:55:05;;;;;;;14.57;11.75;;;8.80;99.90;;;;;;5000647;28;20037;-89
2021/10/16 01:57:31;;;;;;;14.50;11.32;;;8.70;99.90;;;;;;5001990;28;20033;-89
2021/10/16 01:59:56;;;;;;;16.23;12.27;;;8.70;99.90;;;;;;5018320;28;20111;-89
2021/10/16 02:02:22;;;;;;;16.02;11.52;;;8.70;99.90;;;;;;5018222;28;20036;-88
2021/10/16 02:04:48;;;;;;;16.15;12.63;;;8.70;99.90;;;;;;5014963;28;20056;-89
2021/10/16 02:07:13;;;;;;;14.80;11.32;;;8.70;99.90;;;;;;5016828;28;20033;-90
2021/10/16 02:09:39;;;;;;;15.20;12.00;;;8.80;99.90;;;;;;5018432;28;20149;-89
2021/10/16 02:12:05;;;;;;;15.43;11.48;;;8.80;99.90;;;;;;5018494;28;20406;-89
2021/10/16 02:14:30;;;;;;;16.13;11.32;;;8.60;99.90;;;;;;4999427;28;20021;-89
2021/10/16 02:16:57;;;;;;;15.30;11.80;;;8.60;99.90;;;;;;4999337;28;20044;-89
2021/10/16 02:19:23;;;;;;;14.88;11.07;;;8.90;99.90;;;;;;5016088;28;20037;-89
2021/10/16 02:21:49;;;;;;;16.35;12.18;;;8.70;99.90;;;;;;4999724;28;20026;-89
2021/10/16 02:24:14;;;;;;;14.25;11.63;;;8.70;99.90;;;;;;5011382;28;20136;-88
2021/10/16 02:26:40;;;;;;;18.15;12.65;;;9.00;99.90;;;;;;5006935;28;20550;-89
2021/10/16 02:29:06;;;;;;;17.40;12.32;;;8.70;99.90;;;;;;4998997;28;20383;-89
2021/10/16 02:31:31;;;;;;;17.83;12.60;;;8.80;99.90;;;;;;5014631;28;20056;-89
2021/10/16 02:33:57;;;;;;;15.65;12.13;;;8.60;99.90;;;;;;5027440;28;20061;-89
2021/10/16 02:36:23;;;;;;;15.35;12.90;;;8.50;99.90;;;;;;5020998;28;20494;-89
2021/10/16 02:38:48;;;;;;;14.13;11.88;;;8.50;99.90;;;;;;5017627;28;20033;-89
2021/10/16 02:41:14;;;;;;;15.68;12.27;;;8.50;99.90;;;;;;5013991;28;20037;-89
2021/10/16 02:43:40;;;;;;;17.33;12.35;;;8.60;99.90;;;;;;5030134;28;20034;-89
2021/10/16 02:46:06;;;;;;;14.77;12.48;;;8.70;99.90;;;;;;5017450;28;20030;-89
2021/10/16 02:48:31;;;;;;;15.48;12.52;;;8.90;99.90;;;;;;5000010;28;20022;-89
2021/10/16 02:50:57;;;;;;;14.85;12.27;;;8.90;99.90;;;;;;5019333;28;20029;-89
2021/10/16 02:53:22;;;;;;;15.13;12.27;;;9.30;99.90;;;;;;4999760;28;20033;-89
2021/10/16 02:55:48;;;;;;;17.63;12.38;;;9.00;99.90;;;;;;5014459;28;20087;-89
2021/10/16 02:58:14;;;;;;;16.00;12.07;;;9.40;99.90;;;;;;4998635;28;20030;-88
2021/10/16 03:00:39;;;;;;;15.18;12.52;;;9.10;99.90;;;;;;5031027;28;20044;-89
2021/10/16 03:03:05;;;;;;;16.92;12.90;;;9.10;99.90;;;;;;5021761;28;20029;-90
2021/10/16 03:05:31;;;;;;;15.63;12.32;;;9.20;99.90;;;;;;5017857;28;20040;-89
2021/10/16 03:07:56;;;;;;;16.25;12.63;;;9.50;99.90;;;;;;4997674;28;20025;-90
2021/10/16 03:10:22;;;;;;;16.08;13.20;;;9.70;99.90;;;;;;5015348;28;20034;-89
2021/10/16 03:12:47;;;;;;;14.15;11.75;;;9.20;99.90;;;;;;5018833;28;20038;-89
2021/10/16 03:15:13;;;;;;;15.13;12.48;;;9.20;99.90;;;;;;5017850;28;20543;-89
2021/10/16 03:17:38;;;;;;;16.27;12.45;;;9.50;99.90;;;;;;5017611;28;20026;-89
2021/10/16 03:20:05;;;;;;;15.73;12.48;;;9.10;99.90;;;;;;5017476;28;20547;-89
2021/10/16 03:22:31;;;;;;;15.18;11.80;;;9.10;99.90;;;;;;5014379;28;20033;-89
2021/10/16 03:24:56;;;;;;;16.65;12.70;;;9.10;99.90;;;;;;5009011;28;20393;-89
2021/10/16 03:27:22;;;;;;;15.95;12.00;;;9.10;99.90;;;;;;5002522;28;20038;-89
2021/10/16 03:29:48;;;;;;;14.30;12.30;;;9.20;99.90;;;;;;5019974;28;20434;-89
2021/10/16 03:32:13;;;;;;;14.88;12.48;;;8.80;99.90;;;;;;5019597;28;20029;-89
2021/10/16 03:34:39;;;;;;;16.73;12.65;;;8.90;99.90;;;;;;4995393;28;20083;-89
2021/10/16 03:37:04;;;;;;;15.98;12.07;;;8.80;99.90;;;;;;5016395;28;20513;-89
2021/10/16 03:39:30;;;;;;;15.25;12.55;;;8.80;99.90;;;;;;5000079;28;20080;-89
2021/10/16 03:41:55;;;;;;;17.52;12.43;;;8.90;99.90;;;;;;5017114;28;20494;-89
2021/10/16 03:44:21;;;;;;;16.85;13.43;;;8.80;99.90;;;;;;5018133;28;20041;-89
2021/10/16 03:46:46;;;;;;;17.02;12.93;;;9.00;99.90;;;;;;5028414;28;20026;-89
2021/10/16 03:49:12;;;;;;;15.88;11.98;;;8.70;99.90;;;;;;4997934;28;20076;-88
2021/10/16 03:51:38;;;;;;;14.63;11.98;;;9.00;99.90;;;;;;5019297;28;20056;-88
2021/10/16 03:54:03;;;;;;;15.40;12.80;;;8.80;99.90;;;;;;5000844;28;20033;-89
2021/10/16 03:56:29;;;;;;;18.10;12.88;;;8.70;99.90;;;;;;5021827;28;20021;-89
2021/10/16 03:58:55;;;;;;;16.88;12.90;;;8.70;99.90;;;;;;5018789;28;20022;-89
2021/10/16 04:01:20;;;;;;;18.60;13.60;;;8.70;99.90;;;;;;5018532;28;20368;-89
2021/10/16 04:03:46;;;;;;;17.58;12.43;;;8.80;99.90;;;;;;5034681;28;20063;-89
2021/10/16 04:06:12;;;;;;;16.73;12.77;;;8.90;99.90;;;;;;5023979;28;20057;-89
2021/10/16 04:08:37;;;;;;;15.63;12.45;;;9.00;99.90;;;;;;5024032;28;20033;-89
2021/10/16 04:11:03;;;;;;;15.70;13.15;;;9.10;99.90;;;;;;5014261;28;20025;-89
2021/10/16 04:13:28;;;;;;;16.67;13.55;;;9.10;99.90;;;;;;5017607;28;20044;-89
2021/10/16 04:15:54;;;;;;;19.75;14.63;;;9.10;99.90;;;;;;5019744;28;20049;-89
2021/10/16 04:18:20;;;;;;;15.98;13.40;;;9.00;99.90;;;;;;5005092;28;20064;-89
2021/10/16 04:20:45;;;;;;;17.33;13.65;;;8.90;99.90;;;;;;5020230;28;20030;-89
2021/10/16 04:23:11;;;;;;;14.95;12.77;;;9.00;99.90;;;;;;5022733;28;20585;-89
2021/10/16 04:25:37;;;;;;;14.68;12.93;;;9.00;99.90;;;;;;5032707;28;20021;-90
2021/10/16 04:28:03;;;;;;;15.95;12.70;;;9.60;99.90;;;;;;5020593;28;20521;-90
2021/10/16 04:30:28;;;;;;;17.02;12.73;;;9.20;99.90;;;;;;5002625;28;20022;-89
2021/10/16 04:32:55;;;;;;;16.33;12.57;;;9.20;99.90;;;;;;5021566;28;20048;-88
2021/10/16 04:35:21;;;;;;;14.05;12.02;;;9.30;99.90;;;;;;5002719;28;20045;-90
2021/10/16 04:37:47;;;;;;;16.75;12.88;;;9.50;99.90;;;;;;5017238;28;20478;-90
2021/10/16 04:40:22;;;;;;;16.33;12.98;;;9.20;99.90;;;;;;5018362;28;20024;-87
2021/10/16 04:42:49;;;;;;;16.08;12.73;;;9.30;99.90;;;;;;5020730;28;20057;-89
2021/10/16 04:45:16;;;;;;;17.88;12.68;;;9.40;99.90;;;;;;5023026;28;20449;-88
2021/10/16 04:47:42;;;;;;;15.57;12.68;;;9.50;99.90;;;;;;5026216;28;20120;-89
2021/10/16 04:50:10;;;;;;;16.52;12.55;;;9.90;99.90;;;;;;5018740;28;20144;-89
2021/10/16 04:52:36;;;;;;;16.10;12.60;;;9.50;99.90;;;;;;5014374;28;20061;-89
2021/10/16 04:55:03;;;;;;;15.05;12.65;;;9.50;99.90;;;;;;5032851;28;20422;-89
2021/10/16 04:57:29;;;;;;;17.88;13.15;;;9.60;99.90;;;;;;5001316;28;20091;-89
2021/10/16 04:59:54;;;;;;;17.42;13.95;;;9.50;99.90;;;;;;5001174;28;20029;-89
2021/10/16 05:02:20;;;;;;;16.25;13.50;;;9.50;99.90;;;;;;5001589;28;20095;-89
2021/10/16 05:04:45;;;;;;;19.20;14.18;;;9.60;99.90;;;;;;5016991;28;20021;-89
2021/10/16 05:07:11;;;;;;;17.45;12.90;;;9.60;99.90;;;;;;5017157;28;20214;-89
2021/10/16 05:09:37;;;;;;;14.13;12.25;;;9.40;99.90;;;;;;5003114;28;20034;-89
2021/10/16 05:12:03;;;;;;;20.60;13.55;;;9.40;99.90;;;;;;5002342;28;20057;-90
2021/10/16 05:14:28;;;;;;;17.45;12.68;;;9.50;99.90;;;;;;5020247;28;20104;-90
2021/10/16 05:16:54;;;;;;;18.17;12.50;;;9.40;99.90;;;;;;4996535;28;20038;-89
2021/10/16 05:19:19;;;;;;;17.10;13.40;;;9.20;99.90;;;;;;5028922;28;20025;-88
2021/10/16 05:21:45;;;;;;;17.65;13.55;;;9.30;99.90;;;;;;5013001;28;20355;-89
2021/10/16 05:24:11;;;;;;;15.68;12.30;;;9.50;99.90;;;;;;5022099;28;20482;-88
2021/10/16 05:26:36;;;;;;;16.08;12.38;;;9.90;99.90;;;;;;5001855;28;20192;-88
2021/10/16 05:29:03;;;;;;;16.02;13.48;;;9.60;99.90;;;;;;5000081;28;20080;-89
2021/10/16 05:31:29;;;;;;;16.48;13.48;;;9.50;99.90;;;;;;4997921;28;20030;-89
2021/10/16 05:33:55;;;;;;;19.30;13.77;;;9.90;99.90;;;;;;5017685;28;20044;-89
2021/10/16 05:36:21;;;;;;;16.60;13.65;;;9.80;99.90;;;;;;5008832;28;20056;-89
2021/10/16 05:38:47;;;;;;;15.60;13.10;;;9.60;99.90;;;;;;5007112;28;20022;-89
2021/10/16 05:41:14;;;;;;;16.55;13.55;;;10.00;99.90;;;;;;5018475;28;20401;-89
2021/10/16 05:43:40;;;;;;;20.02;14.40;;;9.50;99.90;;;;;;4940495;28;1182514;-89
2021/10/16 05:46:05;;;;;;;17.65;14.15;;;9.60;99.90;;;;;;5018044;28;20037;-89
2021/10/16 05:48:31;;;;;;;17.17;14.18;;;9.50;99.90;;;;;;5001547;28;20437;-89
2021/10/16 05:50:59;;;;;;;16.77;13.82;;;9.50;99.90;;;;;;5018548;28;20030;-89
2021/10/16 05:53:25;;;;;;;18.88;14.48;;;9.70;99.90;;;;;;5019862;28;20107;-90
2021/10/16 05:55:51;;;;;;;19.77;13.57;;;9.50;99.90;;;;;;5029423;28;20482;-89
2021/10/16 05:58:17;;;;;;;16.45;13.13;;;9.60;99.90;;;;;;5016522;28;20030;-89
2021/10/16 06:00:42;;;;;;;16.40;13.57;;;9.70;99.90;;;;;;5001380;28;20034;-89
2021/10/16 06:03:08;;;;;;;18.67;13.70;;;9.80;99.90;;;;;;5021678;28;20033;-89
2021/10/16 06:05:37;;;;;;;20.25;14.20;;;9.80;99.90;;;;;;5030865;28;20025;-89
2021/10/16 06:08:04;;;;;;;17.60;13.52;;;9.90;99.90;;;;;;5029809;28;20071;-89
2021/10/16 06:10:29;;;;;;;17.70;13.20;;;9.90;99.90;;;;;;5015878;28;20032;-89
2021/10/16 06:12:55;;;;;;;19.88;14.27;;;10.40;99.90;;;;;;4999862;28;20038;-89
2021/10/16 06:15:20;;;;;;;18.30;14.70;;;9.90;99.90;;;;;;5020446;28;20109;-89
2021/10/16 06:17:46;;;;;;;22.90;16.67;;;9.80;99.90;;;;;;5000365;28;20401;-89
2021/10/16 06:20:12;;;;;;;22.48;16.83;;;9.80;99.90;;;;;;5000567;28;20385;-90
2021/10/16 06:22:38;;;;;;;21.75;16.92;;;10.20;99.90;;;;;;4996336;28;20513;-89
2021/10/16 06:25:04;;;;;;;22.27;16.42;;;10.10;99.90;;;;;;5032380;28;20038;-89
2021/10/16 06:27:29;;;;;;;28.73;20.60;;;9.70;99.90;;;;;;4997634;28;20497;-89
2021/10/16 06:29:55;;;;;;;27.67;19.85;;;9.70;99.90;;;;;;5018224;28;20033;-89
2021/10/16 06:32:21;;;;;;;29.73;21.23;;;9.90;99.90;;;;;;5017770;28;20029;-89
2021/10/16 06:34:46;;;;;;;29.10;20.98;;;10.40;99.90;;;;;;4998265;28;20116;-88
2021/10/16 06:37:12;;;;;;;29.77;22.40;;;10.40;99.90;;;;;;5032117;28;20116;-89
2021/10/16 06:39:38;;;;;;;31.35;22.75;;;10.30;99.90;;;;;;5002033;28;20421;-89
2021/10/16 06:42:03;;;;;;;35.58;24.25;;;10.40;99.90;;;;;;5018431;28;20034;-89
2021/10/16 06:44:29;;;;;;;37.15;25.70;;;9.60;99.90;;;;;;5017750;28;20460;-89
2021/10/16 06:46:55;;;;;;;37.08;25.55;;;9.70;99.90;;;;;;5015445;28;20112;-89
2021/10/16 06:49:20;;;;;;;38.13;25.92;;;9.70;99.90;;;;;;5015939;28;20040;-89
2021/10/16 06:51:46;;;;;;;41.92;27.60;;;10.10;99.90;;;;;;5018851;28;20041;-89
2021/10/16 06:54:12;;;;;;;34.10;23.27;;;9.80;99.90;;;;;;5019460;28;20042;-89
2021/10/16 06:56:38;;;;;;;36.22;25.13;;;10.10;99.90;;;;;;5017725;28;20525;-90
2021/10/16 06:59:04;;;;;;;35.63;23.92;;;9.70;99.90;;;;;;5016704;28;20051;-89
2021/10/16 07:01:30;;;;;;;33.65;22.70;;;9.70;99.90;;;;;;4997003;28;20022;-89
2021/10/16 07:03:55;;;;;;;35.00;23.10;;;9.60;99.90;;;;;;5015770;28;20112;-89
2021/10/16 07:06:21;;;;;;;34.80;23.02;;;9.60;99.90;;;;;;5002836;28;20028;-89
2021/10/16 07:08:47;;;;;;;34.90;22.58;;;9.60;99.90;;;;;;4999271;28;20060;-89
2021/10/16 07:11:12;;;;;;;31.27;22.23;;;9.50;99.90;;;;;;5001057;28;20032;-89
2021/10/16 07:13:38;;;;;;;40.08;23.80;;;9.90;99.90;;;;;;5014446;28;20069;-89
2021/10/16 07:16:04;;;;;;;33.90;22.08;;;9.60;99.90;;;;;;4999982;28;20048;-89
2021/10/16 07:18:30;;;;;;;34.88;22.55;;;9.40;99.90;;;;;;4999488;28;20041;-89
2021/10/16 07:20:57;;;;;;;32.92;22.48;;;9.50;99.90;;;;;;5018405;28;20060;-89
2021/10/16 07:23:26;;;;;;;32.92;22.98;;;9.70;99.90;;;;;;5009025;28;20501;-90
2021/10/16 07:25:57;;;;;;;35.20;24.88;;;10.30;99.90;;;;;;5014286;28;20037;-89
2021/10/16 07:28:23;;;;;;;38.83;25.08;;;9.60;99.90;;;;;;4997366;28;20405;-89
2021/10/16 07:30:50;;;;;;;37.80;24.48;;;9.70;99.90;;;;;;5000976;28;20048;-88
2021/10/16 07:33:15;;;;;;;36.60;26.27;;;9.70;99.90;;;;;;5003603;28;20049;-88
2021/10/16 07:35:42;;;;;;;45.40;28.35;;;9.60;99.90;;;;;;5020966;28;20390;-89
2021/10/16 07:38:08;;;;;;;37.30;25.23;;;9.80;99.90;;;;;;5002966;28;20112;-89
2021/10/16 07:40:33;;;;;;;35.88;24.35;;;10.10;99.90;;;;;;5018261;28;20140;-89
2021/10/16 07:42:59;;;;;;;37.65;24.15;;;9.70;99.90;;;;;;5003409;28;20056;-89
2021/10/16 07:45:24;;;;;;;34.80;23.77;;;9.70;99.90;;;;;;5021525;28;20076;-89
2021/10/16 07:47:50;;;;;;;35.03;22.98;;;9.80;99.90;;;;;;5004213;28;20036;-89
2021/10/16 07:50:16;;;;;;;39.92;25.85;;;9.90;99.90;;;;;;5021661;28;20025;-90
2021/10/16 07:52:42;;;;;;;44.28;27.92;;;9.70;99.90;;;;;;4998782;28;20112;-89
2021/10/16 07:55:08;;;;;;;37.03;26.67;;;10.00;99.90;;;;;;5027358;28;20026;-89
2021/10/16 07:57:33;;;;;;;37.25;24.13;;;9.90;99.90;;;;;;5004059;28;20040;-89
2021/10/16 07:59:59;;;;;;;38.08;25.23;;;9.90;99.90;;;;;;5022120;28;20048;-89
2021/10/16 08:02:24;;;;;;;37.60;25.20;;;10.20;99.90;;;;;;5021870;28;20389;-89
2021/10/16 08:04:50;;;;;;;37.67;25.10;;;10.20;99.90;;;;;;5017550;28;20109;-89
2021/10/16 08:07:16;;;;;;;37.72;24.70;;;10.10;99.90;;;;;;5002020;28;20033;-89
2021/10/16 08:09:41;;;;;;;37.08;26.40;;;10.80;99.90;;;;;;5004682;28;20473;-89
2021/10/16 08:12:07;;;;;;;36.05;24.27;;;10.40;99.90;;;;;;5022556;28;20060;-89
2021/10/16 08:14:33;;;;;;;37.55;25.23;;;10.30;99.90;;;;;;5000426;28;20390;-89
2021/10/16 08:16:58;;;;;;;37.65;24.98;;;10.60;99.90;;;;;;5015942;28;20029;-89
2021/10/16 08:19:24;;;;;;;38.60;24.67;;;10.30;99.90;;;;;;5033870;28;20029;-90
2021/10/16 08:21:49;;;;;;;35.42;24.17;;;10.30;99.90;;;;;;5035432;28;20030;-89
2021/10/16 08:24:15;;;;;;;37.60;24.95;;;10.90;99.90;;;;;;5023218;28;20038;-89
2021/10/16 08:26:41;;;;;;;36.50;23.48;;;10.50;99.90;;;;;;5017585;28;20029;-89
2021/10/16 08:29:06;;;;;;;38.22;26.52;;;10.30;99.90;;;;;;5018771;28;20116;-89
2021/10/16 08:31:32;;;;;;;36.67;23.48;;;10.30;99.90;;;;;;4998945;28;20537;-88
2021/10/16 08:33:57;;;;;;;34.88;24.25;;;10.20;99.90;;;;;;5016043;28;20037;-87
2021/10/16 08:36:23;;;;;;;38.28;23.33;;;10.30;99.90;;;;;;5023479;28;20044;-88
2021/10/16 08:38:51;;;;;;;32.58;22.40;;;10.60;99.90;;;;;;5021546;28;20091;-89
2021/10/16 08:41:17;;;;;;;33.08;22.92;;;10.50;99.90;;;;;;5001762;28;20067;-89
2021/10/16 08:43:43;;;;;;;35.33;24.73;;;10.30;99.90;;;;;;5000041;28;20049;-89
2021/10/16 08:46:09;;;;;;;30.27;22.05;;;10.50;99.90;;;;;;5018816;28;20050;-89
2021/10/16 08:48:38;;;;;;;31.80;22.27;;;10.50;99.90;;;;;;5019995;28;20030;-89
2021/10/16 08:51:03;;;;;;;34.45;21.88;;;10.50;99.90;;;;;;5020087;28;20486;-89
2021/10/16 08:53:29;;;;;;;32.17;22.25;;;10.30;99.90;;;;;;5019839;28;20084;-88
2021/10/16 08:55:55;;;;;;;30.00;22.13;;;10.40;99.90;;;;;;5016847;28;20037;-87
2021/10/16 08:58:21;;;;;;;33.40;22.65;;;10.60;99.90;;;;;;5017205;28;20501;-89
2021/10/16 09:00:54;;;;;;;29.33;20.70;;;10.40;99.90;;;;;;5019128;28;20049;-89
2021/10/16 09:03:20;;;;;;;30.02;21.02;;;10.80;99.90;;;;;;5022201;28;20045;-89
2021/10/16 09:05:59;;;;;;;30.88;21.80;;;10.40;99.90;;;;;;5018786;28;20026;-89
2021/10/16 09:08:40;;;;;;;33.67;22.42;;;10.60;99.90;;;;;;5020877;28;20022;-88
2021/10/16 09:11:12;;;;;;;34.20;22.45;;;10.60;99.90;;;;;;5033592;28;20493;-88
2021/10/16 09:13:42;;;;;;;33.03;22.45;;;10.60;99.90;;;;;;5032575;28;20040;-89
2021/10/16 09:16:18;;;;;;;34.17;23.75;;;10.70;99.90;;;;;;5018270;28;20033;-88
2021/10/16 09:19:12;;;;;;;34.33;23.88;;;10.90;99.90;;;;;;5021672;28;20033;-88
2021/10/16 09:21:40;;;;;;;34.83;23.80;;;11.00;99.90;;;;;;4953954;28;20515;-89
2021/10/16 09:24:07;;;;;;;32.45;23.23;;;11.20;99.90;;;;;;4953672;28;20118;-88
2021/10/16 09:26:35;;;;;;;31.52;21.45;;;11.40;99.90;;;;;;4937641;29;20035;-89
2021/10/16 09:29:04;;;;;;;32.65;21.60;;;11.40;99.90;;;;;;4937738;29;20039;-88
2021/10/16 09:31:36;;;;;;;32.15;21.95;;;11.40;99.90;;;;;;4953418;28;20034;-88
2021/10/16 09:34:02;;;;;;;32.83;21.90;;;11.50;99.90;;;;;;4946336;29;20039;-88
2021/10/16 09:36:30;;;;;;;33.40;23.13;;;12.00;99.90;;;;;;4937628;29;20066;-88
2021/10/16 09:38:56;;;;;;;37.90;24.00;;;11.80;99.90;;;;;;4949818;28;20048;-88
2021/10/16 09:41:30;;;;;;;36.03;25.17;;;11.70;99.90;;;;;;4927680;29;20038;-88
2021/10/16 09:43:57;;;;;;;36.90;25.85;;;11.60;99.90;;;;;;4953579;28;20058;-88
2021/10/16 09:46:23;;;;;;;35.30;24.05;;;12.00;99.90;;;;;;4953358;28;20031;-88
2021/10/16 09:48:50;;;;;;;33.80;23.40;;;11.60;99.90;;;;;;4942771;28;20027;-89
2021/10/16 09:51:18;;;;;;;33.50;23.15;;;11.80;99.90;;;;;;4934086;29;20045;-89
2021/10/16 09:53:45;;;;;;;33.33;23.38;;;11.90;99.90;;;;;;4952833;28;20114;-88
2021/10/16 09:56:12;;;;;;;34.22;23.90;;;11.90;99.90;;;;;;4956440;28;20515;-88
2021/10/16 09:58:38;;;;;;;32.70;23.70;;;11.80;99.90;;;;;;4957794;28;20036;-88
2021/10/16 10:01:04;;;;;;;32.88;22.98;;;12.00;99.90;;;;;;5018033;28;20040;-88
2021/10/16 10:03:32;;;;;;;34.20;23.85;;;12.00;99.90;;;;;;5018448;28;20033;-88
2021/10/16 10:05:58;;;;;;;33.95;23.88;;;12.30;99.90;;;;;;5000411;28;20061;-88
2021/10/16 10:08:24;;;;;;;29.35;21.75;;;12.60;99.90;;;;;;5002523;28;20069;-88
2021/10/16 10:10:50;;;;;;;31.85;22.95;;;11.90;99.90;;;;;;4999092;28;20025;-88
2021/10/16 10:13:16;;;;;;;31.00;23.27;;;12.00;99.90;;;;;;4997978;28;20557;-88
2021/10/16 10:15:43;;;;;;;32.67;23.55;;;12.20;99.90;;;;;;5017975;28;20026;-88
2021/10/16 10:20:56;;;;;;;29.13;22.35;;;12.50;99.90;;;;;;5018280;28;20047;-88
2021/10/16 10:23:23;;;;;;;29.77;21.33;;;12.20;99.90;;;;;;5017412;28;20100;-88
2021/10/16 10:25:49;;;;;;;29.55;22.00;;;12.40;99.90;;;;;;5014553;28;20029;-88
2021/10/16 10:28:15;;;;;;;29.80;22.08;;;12.50;99.90;;;;;;5015829;28;20034;-88
2021/10/16 10:30:42;;;;;;;29.63;21.65;;;12.70;99.90;;;;;;5017677;28;20030;-88
2021/10/16 10:33:18;;;;;;;28.15;21.33;;;13.00;99.90;;;;;;5017390;28;20525;-88
2021/10/16 10:35:48;;;;;;;28.95;21.55;;;12.80;99.90;;;;;;5019920;28;20088;-88
2021/10/16 10:38:34;;;;;;;25.90;20.08;;;13.10;99.90;;;;;;5019162;28;20032;-88
2021/10/16 10:41:21;;;;;;;28.13;20.58;;;12.80;99.90;;;;;;4977240;28;20057;-88
2021/10/16 10:43:49;;;;;;;27.38;20.38;;;12.90;99.90;;;;;;4998690;28;20053;-88
2021/10/16 10:46:14;;;;;;;27.25;20.63;;;13.20;99.90;;;;;;5015409;28;20491;-88
2021/10/16 10:48:47;;;;;;;26.90;19.80;;;13.30;99.90;;;;;;5019867;28;20036;-88
2021/10/16 10:51:33;;;;;;;28.33;19.85;;;13.40;99.90;;;;;;5017300;28;20042;-88
2021/10/16 10:54:37;;;;;;;25.35;19.88;;;13.80;99.90;;;;;;5017712;28;20541;-88
2021/10/16 10:57:02;;;;;;;25.95;20.52;;;14.10;99.90;;;;;;4947946;28;20412;-88
2021/10/16 10:59:28;;;;;;;25.98;20.10;;;14.40;99.90;;;;;;4943116;28;20028;-87
2021/10/16 11:02:00;;;;;;;26.77;21.00;;;14.40;99.90;;;;;;4935709;29;20038;-88
2021/10/16 11:04:51;;;;;;;24.40;20.13;;;14.20;99.90;;;;;;4952649;28;20035;-89
2021/10/16 11:07:29;;;;;;;27.83;20.15;;;14.10;99.90;;;;;;4951838;28;20055;-88
2021/10/16 11:09:55;;;;;;;23.88;19.30;;;14.50;99.90;;;;;;4951274;29;20626;-88
2021/10/16 11:12:31;;;;;;;24.50;19.77;;;14.80;99.90;;;;;;4935860;29;20051;-88
2021/10/16 11:14:59;;;;;;;24.13;18.65;;;15.00;99.90;;;;;;4941796;29;20246;-89
2021/10/16 11:17:43;;;;;;;24.70;18.85;;;15.70;99.90;;;;;;4935834;29;20466;-88
2021/10/16 11:20:13;;;;;;;24.58;18.85;;;16.00;99.90;;;;;;4936273;29;20031;-88
2021/10/16 11:22:51;;;;;;;26.55;20.05;;;15.70;99.90;;;;;;4935862;28;20038;-88
2021/10/16 11:25:19;;;;;;;28.42;19.55;;;16.10;99.90;;;;;;4948622;28;20231;-87
2021/10/16 11:28:05;;;;;;;24.25;19.48;;;17.30;99.90;;;;;;4924062;29;20047;-88
2021/10/16 11:30:34;;;;;;;25.10;20.27;;;17.90;99.90;;;;;;4947732;28;20049;-88
2021/10/16 11:33:11;;;;;;;23.88;19.55;;;18.60;99.90;;;;;;5011736;28;20038;-87
2021/10/16 11:35:39;;;;;;;21.50;18.38;;;20.80;99.90;;;;;;5016599;28;20175;-87
2021/10/16 11:38:05;;;;;;;21.52;19.13;;;22.20;99.90;;;;;;5015281;28;20022;-87
2021/10/16 11:40:32;;;;;;;23.98;20.52;;;21.00;99.90;;;;;;5012921;28;20126;-88
2021/10/16 11:43:16;;;;;;;23.05;19.88;;;21.30;99.90;;;;;;5009015;28;20057;-88
2021/10/16 11:45:43;;;;;;;22.25;19.65;;;22.00;99.90;;;;;;5016215;28;20044;-85
2021/10/16 11:48:11;;;;;;;21.73;17.75;;;27.50;99.90;;;;;;5016741;28;20014;-85
2021/10/16 11:50:45;;;;;;;26.58;23.75;;;28.70;99.90;;;;;;5016751;28;20053;-89
2021/10/16 11:53:17;;;;;;;20.10;18.00;;;29.80;99.90;;;;;;5016858;28;20464;-86
2021/10/16 11:55:45;;;;;;;20.05;17.95;;;30.50;99.90;;;;;;4997161;28;20021;-89
2021/10/16 11:58:13;;;;;;;20.80;16.58;;;31.20;99.90;;;;;;4997799;28;20068;-90
2021/10/16 12:00:41;;;;;;;19.10;17.10;;;31.40;99.90;;;;;;5018416;28;20026;-90
2021/10/16 12:03:10;;;;;;;18.02;16.02;;;31.50;99.90;;;;;;5016684;28;20034;-89
2021/10/16 12:05:37;;;;;;;19.23;15.80;;;31.10;99.90;;;;;;5017758;28;20113;-89
2021/10/16 12:08:39;;;;;;;18.80;16.90;;;32.00;99.90;;;;;;5014354;28;20034;-87
2021/10/16 12:11:05;;;;;;;18.95;17.02;;;31.30;99.90;;;;;;4989715;28;20116;-88
2021/10/16 12:13:39;;;;;;;19.65;17.65;;;31.00;99.90;;;;;;5013566;28;20446;-89
2021/10/16 12:16:09;;;;;;;18.00;16.27;;;31.60;99.90;;;;;;5016675;28;20026;-88
2021/10/16 12:18:35;;;;;;;17.95;16.25;;;32.10;99.90;;;;;;5019685;28;20429;-89
2021/10/16 12:21:03;;;;;;;18.17;16.45;;;31.90;99.90;;;;;;5020991;28;20041;-89
2021/10/16 12:23:48;;;;;;;18.92;16.92;;;31.20;99.90;;;;;;5001592;28;20025;-89
2021/10/16 12:26:20;;;;;;;18.02;16.20;;;31.00;99.90;;;;;;5020353;28;20091;-89
2021/10/16 12:28:47;;;;;;;16.85;15.15;;;30.90;99.90;;;;;;5000865;28;20032;-88
2021/10/16 12:31:13;;;;;;;17.83;16.02;;;31.50;99.90;;;;;;5018178;28;20446;-89
2021/10/16 12:34:04;;;;;;;17.83;16.13;;;30.70;99.90;;;;;;5002266;28;20313;-90
2021/10/16 12:36:39;;;;;;;16.92;15.32;;;31.20;99.90;;;;;;5002022;28;20394;-94